Time;durP1;ratioP1;P1;durP2;ratioP2;P2;SDS_P1;SDS_P2;PMS_P1;PMS_P2;Temp;Humidity;BMP_temperature;BMP_pressure;BME280_temperature;BME280_humidity;BME280_pressure;Samples;Min_cycle;Max_cycle;Signal;HPM_P1;HPM_P2
2023/02/18 00:00:30;;;;;;;27.65;24.77;;;12.60;99.90;;;;;;2074474;28;20105;-75
2023/02/18 00:01:30;;;;;;;26.42;23.70;;;12.60;99.90;;;;;;2074771;28;20040;-75
2023/02/18 00:02:32;;;;;;;26.85;24.20;;;12.60;99.90;;;;;;2073701;28;20021;-75
2023/02/18 00:03:33;;;;;;;25.48;22.98;;;12.60;99.90;;;;;;2075534;28;20022;-75
2023/02/18 00:04:33;;;;;;;26.15;23.50;;;12.60;99.90;;;;;;2073714;28;20519;-75
2023/02/18 00:05:34;;;;;;;26.23;23.42;;;12.60;99.90;;;;;;2075207;28;20394;-75
2023/02/18 00:06:35;;;;;;;25.88;23.17;;;12.60;99.90;;;;;;2076604;28;20040;-75
2023/02/18 00:07:39;;;;;;;25.60;22.90;;;12.60;99.90;;;;;;2076053;28;20035;-75
2023/02/18 00:08:42;;;;;;;26.50;23.77;;;12.60;99.90;;;;;;2075928;28;20080;-75
2023/02/18 00:09:43;;;;;;;25.92;23.17;;;12.60;99.90;;;;;;2072772;28;20022;-75
2023/02/18 00:10:43;;;;;;;25.63;23.13;;;12.60;99.90;;;;;;2073397;28;20037;-75
2023/02/18 00:11:44;;;;;;;25.13;22.50;;;12.60;99.90;;;;;;2081481;28;20053;-75
2023/02/18 00:12:45;;;;;;;25.45;22.95;;;12.60;99.90;;;;;;2082057;28;20113;-75
2023/02/18 00:13:50;;;;;;;24.83;22.13;;;12.60;99.90;;;;;;2073591;28;20112;-75
2023/02/18 00:14:50;;;;;;;24.92;21.83;;;12.60;99.90;;;;;;2075428;28;20022;-75
2023/02/18 00:15:51;;;;;;;25.23;22.50;;;12.60;99.90;;;;;;2077716;28;20083;-76
2023/02/18 00:16:51;;;;;;;25.67;22.98;;;12.60;99.90;;;;;;2077903;28;20036;-75
2023/02/18 00:17:52;;;;;;;24.75;22.33;;;12.60;99.90;;;;;;2084314;28;20032;-75
2023/02/18 00:19:01;;;;;;;25.98;23.20;;;12.60;99.90;;;;;;2074143;28;20104;-75
2023/02/18 00:20:03;;;;;;;25.05;22.58;;;12.60;99.90;;;;;;2072974;28;20595;-74
2023/02/18 00:21:06;;;;;;;25.35;22.85;;;12.60;99.90;;;;;;2081838;28;20124;-75
2023/02/18 00:22:07;;;;;;;26.08;23.48;;;12.60;99.90;;;;;;2080752;28;20416;-75
2023/02/18 00:23:07;;;;;;;25.70;23.20;;;12.60;99.90;;;;;;2073992;28;20096;-75
2023/02/18 00:24:08;;;;;;;24.25;21.73;;;12.60;99.90;;;;;;2071942;28;20077;-75
2023/02/18 00:25:09;;;;;;;24.83;22.38;;;12.60;99.90;;;;;;2073520;28;20030;-75
2023/02/18 00:26:15;;;;;;;25.60;23.10;;;12.60;99.90;;;;;;2074076;28;20026;-75
2023/02/18 00:27:16;;;;;;;25.20;22.60;;;12.60;99.90;;;;;;2074706;28;20479;-75
2023/02/18 00:28:16;;;;;;;25.95;23.27;;;12.60;99.90;;;;;;2074164;28;20035;-75
2023/02/18 00:29:17;;;;;;;25.52;22.88;;;12.60;99.90;;;;;;2073763;28;20024;-75
2023/02/18 00:30:18;;;;;;;25.17;22.58;;;12.60;99.90;;;;;;2073521;28;20128;-75
2023/02/18 00:31:25;;;;;;;26.60;23.90;;;12.60;99.90;;;;;;2075717;28;20091;-75
2023/02/18 00:32:25;;;;;;;26.13;23.45;;;12.60;99.90;;;;;;2073147;28;20047;-75
2023/02/18 00:33:26;;;;;;;24.63;22.05;;;12.60;99.90;;;;;;2074802;28;20025;-75
2023/02/18 00:34:26;;;;;;;25.88;23.00;;;12.60;99.90;;;;;;2075804;28;20079;-75
2023/02/18 00:35:27;;;;;;;26.00;23.40;;;12.60;99.90;;;;;;2075846;28;20036;-75
2023/02/18 00:36:28;;;;;;;24.45;21.92;;;12.60;99.90;;;;;;2076060;28;20481;-75
2023/02/18 00:37:28;;;;;;;24.05;21.65;;;12.60;99.90;;;;;;2076417;28;20021;-75
2023/02/18 00:38:29;;;;;;;25.02;22.58;;;12.60;99.90;;;;;;2074590;28;20029;-75
2023/02/18 00:39:30;;;;;;;25.83;23.08;;;12.60;99.90;;;;;;2073278;28;20538;-75
2023/02/18 00:40:30;;;;;;;24.35;21.95;;;12.60;99.90;;;;;;2072898;28;20030;-75
2023/02/18 00:41:31;;;;;;;25.20;22.75;;;12.60;99.90;;;;;;2075540;28;20057;-75
2023/02/18 00:42:32;;;;;;;25.33;22.75;;;12.60;99.90;;;;;;2075730;28;20017;-75
2023/02/18 00:43:33;;;;;;;24.33;21.85;;;12.60;99.90;;;;;;2074488;28;20026;-75
2023/02/18 00:44:33;;;;;;;25.55;21.95;;;12.60;99.90;;;;;;2074461;28;20037;-75
2023/02/18 00:45:34;;;;;;;28.42;23.27;;;12.60;99.90;;;;;;2076036;28;20097;-75
2023/02/18 00:46:35;;;;;;;25.00;22.45;;;12.60;99.90;;;;;;2075380;28;20033;-75
2023/02/18 00:47:35;;;;;;;26.05;23.58;;;12.60;99.90;;;;;;2074950;28;20022;-75
2023/02/18 00:48:36;;;;;;;25.42;22.85;;;12.60;99.90;;;;;;2074127;28;20022;-75
2023/02/18 00:49:37;;;;;;;25.50;22.95;;;12.50;99.90;;;;;;2076871;28;20020;-75
2023/02/18 00:50:37;;;;;;;25.20;22.73;;;12.60;99.90;;;;;;2073058;28;20057;-75
2023/02/18 00:51:38;;;;;;;26.25;23.55;;;12.60;99.90;;;;;;2081509;28;20092;-75
2023/02/18 00:52:38;;;;;;;25.33;22.92;;;12.60;99.90;;;;;;2080095;28;20077;-75
2023/02/18 00:53:39;;;;;;;27.02;24.20;;;12.60;99.90;;;;;;2075174;28;20030;-75
2023/02/18 00:54:40;;;;;;;27.13;24.35;;;12.50;99.90;;;;;;2075084;28;20037;-74
2023/02/18 00:55:43;;;;;;;27.65;25.08;;;12.60;99.90;;;;;;2075300;28;20052;-75
2023/02/18 00:56:43;;;;;;;27.45;24.63;;;12.60;99.90;;;;;;2073262;28;20030;-75
2023/02/18 00:57:44;;;;;;;27.27;24.40;;;12.60;99.90;;;;;;2073806;28;20076;-75
2023/02/18 00:58:44;;;;;;;28.73;25.67;;;12.50;99.90;;;;;;2075230;28;20036;-75
2023/02/18 00:59:46;;;;;;;27.92;25.15;;;12.50;99.90;;;;;;2079560;28;20187;-75
2023/02/18 01:00:46;;;;;;;28.10;25.25;;;12.60;99.90;;;;;;2080333;28;20048;-75
2023/02/18 01:01:47;;;;;;;29.98;26.30;;;12.60;99.90;;;;;;2075673;28;20033;-75
2023/02/18 01:02:47;;;;;;;27.98;24.95;;;12.50;99.90;;;;;;2072319;28;20053;-75
2023/02/18 01:03:48;;;;;;;29.45;26.45;;;12.60;99.90;;;;;;2075428;28;20032;-75
2023/02/18 01:04:49;;;;;;;27.05;24.13;;;12.60;99.90;;;;;;2078314;28;20029;-75
2023/02/18 01:05:50;;;;;;;27.55;24.75;;;12.60;99.90;;;;;;2076253;28;20045;-75
2023/02/18 01:06:51;;;;;;;28.10;25.20;;;12.60;99.90;;;;;;2073394;28;20042;-75
2023/02/18 01:07:51;;;;;;;27.05;24.52;;;12.60;99.90;;;;;;2074487;28;20028;-75
2023/02/18 01:08:52;;;;;;;28.65;25.85;;;12.60;99.90;;;;;;2073676;28;20109;-75
2023/02/18 01:09:52;;;;;;;27.65;24.38;;;12.60;99.90;;;;;;2074145;28;20033;-75
2023/02/18 01:10:55;;;;;;;29.67;26.55;;;12.60;99.90;;;;;;2073857;28;20784;-75
2023/02/18 01:11:55;;;;;;;28.52;25.63;;;12.60;99.90;;;;;;2073701;28;20026;-75
2023/02/18 01:12:56;;;;;;;27.45;24.50;;;12.50;99.90;;;;;;2075133;28;20108;-75
2023/02/18 01:13:56;;;;;;;27.58;24.88;;;12.50;99.90;;;;;;2073885;28;20044;-74
2023/02/18 01:14:57;;;;;;;27.08;24.48;;;12.60;99.90;;;;;;2068697;28;20057;-75
2023/02/18 01:15:58;;;;;;;28.70;25.65;;;12.50;99.90;;;;;;2077676;28;20401;-74
2023/02/18 01:16:58;;;;;;;26.80;24.20;;;12.60;99.90;;;;;;2071652;28;20029;-75
2023/02/18 01:17:59;;;;;;;28.60;25.00;;;12.60;99.90;;;;;;2072470;28;20060;-75
2023/02/18 01:18:59;;;;;;;27.17;24.33;;;12.60;99.90;;;;;;2081174;28;20017;-75
2023/02/18 01:20:00;;;;;;;29.60;26.60;;;12.60;99.90;;;;;;2081498;28;20025;-75
2023/02/18 01:21:00;;;;;;;28.77;25.88;;;12.50;99.90;;;;;;2074001;28;20037;-75
2023/02/18 01:22:01;;;;;;;30.00;27.02;;;12.50;99.90;;;;;;2074697;28;20128;-75
2023/02/18 01:23:02;;;;;;;29.88;26.63;;;12.50;99.90;;;;;;2073727;28;21351;-75
2023/02/18 01:24:03;;;;;;;31.52;27.70;;;12.60;99.90;;;;;;2075122;28;20073;-75
2023/02/18 01:25:04;;;;;;;30.55;27.27;;;12.60;99.90;;;;;;2074850;28;20029;-75
2023/02/18 01:26:05;;;;;;;30.30;27.02;;;12.60;99.90;;;;;;2075079;28;20104;-75
2023/02/18 01:27:05;;;;;;;29.75;26.70;;;12.60;99.90;;;;;;2081762;28;20116;-75
2023/02/18 01:28:07;;;;;;;31.77;27.70;;;12.60;99.90;;;;;;2076086;28;20105;-75
2023/02/18 01:29:08;;;;;;;30.83;27.50;;;12.60;99.90;;;;;;2074987;28;20064;-75
2023/02/18 01:30:11;;;;;;;31.58;28.17;;;12.60;99.90;;;;;;2075396;28;20030;-75
2023/02/18 01:31:13;;;;;;;31.63;28.30;;;12.60;99.90;;;;;;2074842;28;20536;-75
2023/02/18 01:32:14;;;;;;;32.08;28.65;;;12.60;99.90;;;;;;2071205;28;20084;-75
2023/02/18 01:33:14;;;;;;;32.25;28.30;;;12.50;99.90;;;;;;2074202;28;20030;-75
2023/02/18 01:34:15;;;;;;;34.42;30.08;;;12.60;99.90;;;;;;2074130;28;20026;-75
2023/02/18 01:35:19;;;;;;;31.73;28.55;;;12.50;99.90;;;;;;2075633;28;20068;-75
2023/02/18 01:36:20;;;;;;;32.22;29.13;;;12.50;99.90;;;;;;2075412;28;20584;-75
2023/02/18 01:37:21;;;;;;;34.63;30.52;;;12.50;99.90;;;;;;2076540;28;20080;-75
2023/02/18 01:38:21;;;;;;;32.58;29.27;;;12.50;99.90;;;;;;2074952;28;20474;-74
2023/02/18 01:39:22;;;;;;;33.80;30.33;;;12.60;99.90;;;;;;2076147;28;20860;-75
2023/02/18 01:40:25;;;;;;;34.35;30.63;;;12.50;99.90;;;;;;2074786;28;20022;-75
2023/02/18 01:41:25;;;;;;;32.70;29.38;;;12.50;99.90;;;;;;2080914;28;20528;-75
2023/02/18 01:42:28;;;;;;;35.20;31.55;;;12.50;99.90;;;;;;2076418;28;20595;-75
2023/02/18 01:43:28;;;;;;;34.45;31.05;;;12.50;99.90;;;;;;2076397;28;20440;-74
2023/02/18 01:44:29;;;;;;;35.13;31.35;;;12.50;99.90;;;;;;2076431;28;20053;-75
2023/02/18 01:45:32;;;;;;;34.85;31.17;;;12.50;99.90;;;;;;2075641;28;20040;-75
2023/02/18 01:46:33;;;;;;;34.47;30.85;;;12.50;99.90;;;;;;2074980;28;20104;-75
2023/02/18 01:47:33;;;;;;;34.85;31.20;;;12.50;99.90;;;;;;2081644;28;20021;-75
2023/02/18 01:48:55;;;;;;;34.83;31.23;;;12.50;99.90;;;;;;2083105;28;20679;-75
2023/02/18 01:49:56;;;;;;;34.63;30.85;;;12.50;99.90;;;;;;2075692;28;20033;-75
2023/02/18 01:51:11;;;;;;;34.50;30.92;;;12.50;99.90;;;;;;2076481;28;20033;-75
2023/02/18 01:52:19;;;;;;;34.35;30.95;;;12.50;99.90;;;;;;2076008;28;20493;-75
2023/02/18 01:53:27;;;;;;;32.72;29.33;;;12.50;99.90;;;;;;2076541;28;20028;-75
2023/02/18 01:54:31;;;;;;;34.10;30.35;;;12.50;99.90;;;;;;2075263;28;20523;-75
2023/02/18 01:55:34;;;;;;;34.10;30.50;;;12.50;99.90;;;;;;2076167;28;20029;-75
2023/02/18 01:56:39;;;;;;;35.30;31.60;;;12.50;99.90;;;;;;2076109;28;20671;-75
2023/02/18 01:57:40;;;;;;;34.38;30.75;;;12.50;99.90;;;;;;2075589;28;20053;-74
2023/02/18 01:58:42;;;;;;;34.50;30.80;;;12.50;99.90;;;;;;2075801;28;20025;-74
2023/02/18 01:59:50;;;;;;;36.38;32.65;;;12.50;99.90;;;;;;2073205;28;20026;-75
2023/02/18 02:00:51;;;;;;;37.28;33.33;;;12.50;99.90;;;;;;2077892;28;20037;-75
2023/02/18 02:01:52;;;;;;;36.45;32.80;;;12.50;99.90;;;;;;2075196;28;20028;-75
2023/02/18 02:02:53;;;;;;;36.50;32.65;;;12.50;99.90;;;;;;2075494;28;20039;-74
2023/02/18 02:03:54;;;;;;;35.40;31.70;;;12.50;99.90;;;;;;2076202;28;20033;-75
2023/02/18 02:04:55;;;;;;;35.78;32.20;;;12.50;99.90;;;;;;2074103;28;20030;-74
2023/02/18 02:05:55;;;;;;;36.25;32.50;;;12.50;99.90;;;;;;2075667;28;20045;-75
2023/02/18 02:06:56;;;;;;;36.65;32.78;;;12.50;99.90;;;;;;2076213;28;20057;-75
2023/02/18 02:07:58;;;;;;;35.55;31.80;;;12.50;99.90;;;;;;2075036;28;20037;-74
2023/02/18 02:09:01;;;;;;;35.20;31.50;;;12.50;99.90;;;;;;2075866;28;20029;-75
2023/02/18 02:10:02;;;;;;;37.28;31.75;;;12.50;99.90;;;;;;2075578;28;20034;-75
2023/02/18 02:11:40;;;;;;;34.35;30.73;;;12.50;99.90;;;;;;2074277;28;20095;-75
2023/02/18 02:12:59;;;;;;;36.72;33.00;;;12.50;99.90;;;;;;2082412;28;20025;-74
2023/02/18 02:14:24;;;;;;;36.08;32.40;;;12.40;99.90;;;;;;2081260;28;20040;-75
2023/02/18 02:15:51;;;;;;;38.92;34.72;;;12.40;99.90;;;;;;2076480;28;20141;-75
2023/02/18 02:17:03;;;;;;;36.35;32.50;;;12.40;99.90;;;;;;2073912;28;21431;-75
2023/02/18 02:18:28;;;;;;;36.92;33.03;;;12.40;99.90;;;;;;2074708;28;20065;-74
2023/02/18 02:20:07;;;;;;;36.15;32.22;;;12.40;99.90;;;;;;2074307;28;20144;-75
2023/02/18 02:21:26;;;;;;;36.22;31.83;;;12.40;99.90;;;;;;2074887;28;20037;-75
2023/02/18 02:22:26;;;;;;;35.00;31.48;;;12.40;99.90;;;;;;2075166;28;20028;-75
2023/02/18 02:23:48;;;;;;;33.28;29.88;;;12.40;99.90;;;;;;2075188;28;20025;-75
2023/02/18 02:25:01;;;;;;;34.50;30.50;;;12.40;99.90;;;;;;2074699;28;20425;-75
2023/02/18 02:26:33;;;;;;;35.97;32.17;;;12.40;99.90;;;;;;2077090;28;20028;-75
2023/02/18 02:27:56;;;;;;;34.78;31.30;;;12.30;99.90;;;;;;2075010;28;20037;-75
2023/02/18 02:29:14;;;;;;;35.42;31.90;;;12.40;99.90;;;;;;2075778;28;20612;-75
2023/02/18 02:30:24;;;;;;;34.92;31.23;;;12.40;99.90;;;;;;2074895;28;20034;-75
2023/02/18 02:31:54;;;;;;;36.00;32.30;;;12.40;99.90;;;;;;2076826;28;20030;-75
2023/02/18 02:33:16;;;;;;;34.17;30.77;;;12.40;99.90;;;;;;2076995;28;20049;-75
2023/02/18 02:34:41;;;;;;;34.58;31.13;;;12.40;99.90;;;;;;2074372;28;20033;-75
2023/02/18 02:36:10;;;;;;;33.33;29.92;;;12.40;99.90;;;;;;2076835;28;20061;-74
2023/02/18 02:37:26;;;;;;;32.03;28.73;;;12.40;99.90;;;;;;2075423;28;20025;-74
2023/02/18 02:39:02;;;;;;;30.73;27.55;;;12.40;99.90;;;;;;2075957;28;20030;-74
2023/02/18 02:40:17;;;;;;;29.58;26.63;;;12.40;99.90;;;;;;2074821;28;20091;-75
2023/02/18 02:41:49;;;;;;;31.55;28.35;;;12.30;99.90;;;;;;2073774;28;21758;-75
2023/02/18 02:43:01;;;;;;;30.42;27.52;;;12.40;99.90;;;;;;2081130;28;20037;-75
2023/02/18 02:44:31;;;;;;;29.90;26.95;;;12.40;99.90;;;;;;2081402;28;20497;-75
2023/02/18 02:45:44;;;;;;;30.15;27.23;;;12.40;99.90;;;;;;2073448;28;20046;-74
2023/02/18 02:46:49;;;;;;;31.23;28.23;;;12.40;99.90;;;;;;2074688;28;20026;-74
2023/02/18 02:48:09;;;;;;;30.80;27.52;;;12.40;99.90;;;;;;2072775;28;20033;-75
2023/02/18 02:49:37;;;;;;;31.52;28.30;;;12.40;99.90;;;;;;2075704;28;20030;-75
2023/02/18 02:50:54;;;;;;;31.73;28.40;;;12.40;99.90;;;;;;2075205;28;20046;-74
2023/02/18 02:52:19;;;;;;;31.55;28.55;;;12.40;99.90;;;;;;2076202;28;20030;-74
2023/02/18 02:53:28;;;;;;;31.60;28.60;;;12.40;99.90;;;;;;2075518;28;20029;-75
2023/02/18 02:54:29;;;;;;;30.65;27.77;;;12.40;99.90;;;;;;2073542;28;20394;-74
2023/02/18 02:55:30;;;;;;;30.83;27.95;;;12.40;99.90;;;;;;2074715;28;20120;-74
2023/02/18 02:56:30;;;;;;;31.42;28.08;;;12.40;99.90;;;;;;2073984;28;20032;-75
2023/02/18 02:57:31;;;;;;;30.02;27.25;;;12.50;99.90;;;;;;2075044;28;20112;-74
2023/02/18 02:58:31;;;;;;;30.77;27.90;;;12.50;99.90;;;;;;2073353;28;20029;-75
2023/02/18 02:59:35;;;;;;;30.17;27.20;;;12.50;99.90;;;;;;2078489;28;20112;-75
2023/02/18 03:01:00;;;;;;;29.25;26.55;;;12.50;99.90;;;;;;2078711;28;20057;-75
2023/02/18 03:02:20;;;;;;;29.35;26.52;;;12.50;99.90;;;;;;2074677;28;20033;-74
2023/02/18 03:03:23;;;;;;;27.25;24.67;;;12.50;99.90;;;;;;2074112;28;20137;-75
2023/02/18 03:04:30;;;;;;;28.45;25.80;;;12.50;99.90;;;;;;2074598;28;20057;-75
2023/02/18 03:05:33;;;;;;;28.35;25.73;;;12.50;99.90;;;;;;2076613;28;20045;-75
2023/02/18 03:07:06;;;;;;;29.35;26.60;;;12.50;99.90;;;;;;2075460;28;20021;-74
2023/02/18 03:08:38;;;;;;;27.75;25.15;;;12.40;99.90;;;;;;2083837;28;20034;-75
2023/02/18 03:10:07;;;;;;;27.50;24.70;;;12.40;99.90;;;;;;2075436;28;20026;-75
2023/02/18 03:11:10;;;;;;;29.57;26.70;;;12.40;99.90;;;;;;2077125;28;20025;-75
2023/02/18 03:12:20;;;;;;;28.77;25.90;;;12.40;99.90;;;;;;2074639;28;20302;-75
2023/02/18 03:13:54;;;;;;;30.52;27.40;;;12.40;99.90;;;;;;2073500;28;20109;-74
2023/02/18 03:15:33;;;;;;;28.65;25.95;;;12.40;99.90;;;;;;2074370;28;20037;-74
2023/02/18 03:16:45;;;;;;;28.90;26.05;;;12.40;99.90;;;;;;2075186;28;20032;-75
2023/02/18 03:18:03;;;;;;;30.35;27.25;;;12.40;99.90;;;;;;2075422;28;20025;-74
2023/02/18 03:19:11;;;;;;;30.25;27.15;;;12.40;99.90;;;;;;2080250;28;20061;-74
2023/02/18 03:20:17;;;;;;;30.25;27.25;;;12.40;99.90;;;;;;2076422;28;20116;-74
2023/02/18 03:21:25;;;;;;;27.38;24.67;;;12.40;99.90;;;;;;2069687;28;20049;-74
2023/02/18 03:22:30;;;;;;;29.40;26.50;;;12.40;99.90;;;;;;2076019;28;20034;-74
2023/02/18 03:23:40;;;;;;;29.35;26.48;;;12.40;99.90;;;;;;2075823;28;20360;-74
2023/02/18 03:24:45;;;;;;;29.30;25.48;;;12.40;99.90;;;;;;2073786;28;20156;-74
2023/02/18 03:25:46;;;;;;;27.63;24.88;;;12.40;99.90;;;;;;2072608;28;20029;-74
2023/02/18 03:26:52;;;;;;;27.65;25.08;;;12.40;99.90;;;;;;2074574;28;20032;-74
2023/02/18 03:27:58;;;;;;;26.35;23.65;;;12.40;99.90;;;;;;2076649;28;20380;-75
2023/02/18 03:29:02;;;;;;;26.38;23.55;;;12.40;99.90;;;;;;2075839;28;20112;-75
2023/02/18 03:30:11;;;;;;;24.67;22.17;;;12.40;99.90;;;;;;2074620;28;20082;-75
2023/02/18 03:31:17;;;;;;;25.50;22.85;;;12.40;99.90;;;;;;2075171;28;20674;-75
2023/02/18 03:32:21;;;;;;;24.00;21.58;;;12.50;99.90;;;;;;2074936;28;20068;-75
2023/02/18 03:33:45;;;;;;;22.20;19.73;;;12.40;99.90;;;;;;2074617;28;20040;-74
2023/02/18 03:34:50;;;;;;;19.95;18.05;;;12.40;99.90;;;;;;2075110;28;20041;-75
2023/02/18 03:35:53;;;;;;;18.17;16.27;;;12.50;99.90;;;;;;2074049;28;20025;-75
2023/02/18 03:36:55;;;;;;;18.13;16.33;;;12.50;99.90;;;;;;2074063;28;20033;-75
2023/02/18 03:38:22;;;;;;;17.48;15.88;;;12.50;99.90;;;;;;2074748;28;20040;-75
2023/02/18 03:39:26;;;;;;;17.38;15.68;;;12.50;99.90;;;;;;2075704;28;20600;-75
2023/02/18 03:40:29;;;;;;;17.75;15.95;;;12.40;99.90;;;;;;2073373;28;20035;-75
2023/02/18 03:41:30;;;;;;;15.93;14.32;;;12.40;99.90;;;;;;2072051;28;20045;-75
2023/02/18 03:42:31;;;;;;;15.93;14.38;;;12.50;99.90;;;;;;2075446;28;20053;-74
2023/02/18 03:43:31;;;;;;;15.60;14.00;;;12.50;99.90;;;;;;2075889;28;20022;-75
2023/02/18 03:44:32;;;;;;;16.38;14.77;;;12.50;99.90;;;;;;2073514;28;20033;-75
2023/02/18 03:45:32;;;;;;;15.60;14.00;;;12.50;99.90;;;;;;2074423;28;20455;-75
2023/02/18 03:46:35;;;;;;;19.38;14.45;;;12.40;99.90;;;;;;2074126;28;20044;-75
2023/02/18 03:47:36;;;;;;;15.77;14.07;;;12.50;99.90;;;;;;2076209;28;20033;-75
2023/02/18 03:48:37;;;;;;;14.48;12.98;;;12.40;99.90;;;;;;2075275;28;20014;-75
2023/02/18 03:49:37;;;;;;;14.73;13.32;;;12.40;99.90;;;;;;2073134;28;20033;-75
2023/02/18 03:50:38;;;;;;;14.48;13.07;;;12.40;99.90;;;;;;2073769;28;20113;-75
2023/02/18 03:51:39;;;;;;;14.65;13.07;;;12.40;99.90;;;;;;2076032;28;20036;-75
2023/02/18 03:52:39;;;;;;;14.00;12.57;;;12.40;99.90;;;;;;2075793;28;20116;-74
2023/02/18 03:53:40;;;;;;;13.95;12.55;;;12.40;99.90;;;;;;2076174;28;20028;-74
2023/02/18 03:54:41;;;;;;;14.77;13.35;;;12.40;99.90;;;;;;2074490;28;20105;-74
2023/02/18 03:55:41;;;;;;;14.88;13.48;;;12.40;99.90;;;;;;2072889;28;20397;-74
2023/02/18 03:56:42;;;;;;;15.18;13.50;;;12.40;99.90;;;;;;2072552;28;20604;-74
2023/02/18 03:57:43;;;;;;;13.65;12.27;;;12.40;99.90;;;;;;2074233;28;20741;-74
2023/02/18 03:58:43;;;;;;;16.10;12.88;;;12.40;99.90;;;;;;2073336;28;20065;-74
2023/02/18 03:59:44;;;;;;;14.95;13.38;;;12.40;99.90;;;;;;2072350;28;20025;-75
2023/02/18 04:00:44;;;;;;;13.95;12.65;;;12.40;99.90;;;;;;2073537;28;20312;-75
2023/02/18 04:01:45;;;;;;;14.45;13.05;;;12.40;99.90;;;;;;2073255;28;20034;-75
2023/02/18 04:02:45;;;;;;;13.88;12.48;;;12.40;99.90;;;;;;2074471;28;20092;-74
2023/02/18 04:03:46;;;;;;;13.85;12.10;;;12.40;99.90;;;;;;2075396;28;20101;-74
2023/02/18 04:04:47;;;;;;;14.70;13.02;;;12.40;99.90;;;;;;2074928;28;20033;-74
2023/02/18 04:05:47;;;;;;;15.38;13.88;;;12.40;99.90;;;;;;2074104;28;20416;-75
2023/02/18 04:06:48;;;;;;;15.25;13.70;;;12.40;99.90;;;;;;2072873;28;20086;-74
2023/02/18 04:07:48;;;;;;;17.10;14.48;;;12.40;99.90;;;;;;2073770;28;20028;-75
2023/02/18 04:08:49;;;;;;;17.00;15.20;;;12.40;99.90;;;;;;2075569;28;20149;-74
2023/02/18 04:09:49;;;;;;;16.25;14.65;;;12.40;99.90;;;;;;2074468;28;21615;-75
2023/02/18 04:10:50;;;;;;;17.20;15.50;;;12.40;99.90;;;;;;2079814;28;20037;-75
2023/02/18 04:11:51;;;;;;;16.95;15.20;;;12.40;99.90;;;;;;2083105;28;20535;-75
2023/02/18 04:12:51;;;;;;;17.40;15.35;;;12.40;99.90;;;;;;2082653;28;20033;-75
2023/02/18 04:13:52;;;;;;;17.63;15.43;;;12.40;99.90;;;;;;2082571;28;20551;-74
2023/02/18 04:14:52;;;;;;;17.38;15.35;;;12.40;99.90;;;;;;2074324;28;20029;-74
2023/02/18 04:15:53;;;;;;;16.77;14.95;;;12.40;99.90;;;;;;2073349;28;20128;-75
2023/02/18 04:16:53;;;;;;;17.02;15.02;;;12.40;99.90;;;;;;2075578;28;20129;-75
2023/02/18 04:17:54;;;;;;;16.17;14.48;;;12.40;99.90;;;;;;2073770;28;20029;-74
2023/02/18 04:18:54;;;;;;;17.25;15.40;;;12.40;99.90;;;;;;2074801;28;20429;-75
2023/02/18 04:19:55;;;;;;;18.15;16.35;;;12.40;99.90;;;;;;2071691;28;20540;-75
2023/02/18 04:20:55;;;;;;;18.00;16.08;;;12.40;99.90;;;;;;2076567;28;20432;-75
2023/02/18 04:21:56;;;;;;;17.27;15.43;;;12.40;99.90;;;;;;2074788;28;20719;-74
2023/02/18 04:22:57;;;;;;;17.50;15.80;;;12.40;99.90;;;;;;2075828;28;20022;-75
2023/02/18 04:23:57;;;;;;;17.25;15.27;;;12.40;99.90;;;;;;2075688;28;20476;-75
2023/02/18 04:24:59;;;;;;;16.63;14.75;;;12.40;99.90;;;;;;2073176;28;20032;-75
2023/02/18 04:25:59;;;;;;;17.65;14.95;;;12.40;99.90;;;;;;2073338;28;20029;-74
2023/02/18 04:27:00;;;;;;;15.93;14.32;;;12.40;99.90;;;;;;2076479;28;20748;-75
2023/02/18 04:28:00;;;;;;;16.67;14.88;;;12.40;99.90;;;;;;2074228;28;20138;-75
2023/02/18 04:29:01;;;;;;;15.13;13.52;;;12.40;99.90;;;;;;2074589;28;20033;-74
2023/02/18 04:30:03;;;;;;;17.48;14.35;;;12.40;99.90;;;;;;2071326;28;20030;-74
2023/02/18 04:31:04;;;;;;;16.08;14.25;;;12.40;99.90;;;;;;2074217;28;20071;-75
2023/02/18 04:32:04;;;;;;;16.52;14.80;;;12.40;99.90;;;;;;2077062;28;20037;-75
2023/02/18 04:33:05;;;;;;;15.63;14.05;;;12.40;99.90;;;;;;2074027;28;20537;-74
2023/02/18 04:34:06;;;;;;;16.05;13.82;;;12.40;99.90;;;;;;2073552;28;20414;-75
2023/02/18 04:35:07;;;;;;;15.55;14.05;;;12.40;99.90;;;;;;2077486;28;20064;-75
2023/02/18 04:36:08;;;;;;;15.38;13.40;;;12.40;99.90;;;;;;2070120;28;20073;-74
2023/02/18 04:37:08;;;;;;;14.70;13.20;;;12.40;99.90;;;;;;2078768;28;20049;-74
2023/02/18 04:38:10;;;;;;;15.13;13.55;;;12.40;99.90;;;;;;2073887;28;20027;-74
2023/02/18 04:39:11;;;;;;;15.38;13.73;;;12.40;99.90;;;;;;2076118;28;20051;-75
2023/02/18 04:40:12;;;;;;;16.27;14.55;;;12.40;99.90;;;;;;2075602;28;20025;-75
2023/02/18 04:41:12;;;;;;;17.10;13.73;;;12.40;99.90;;;;;;2072332;28;20026;-74
2023/02/18 04:42:13;;;;;;;15.63;13.85;;;12.40;99.90;;;;;;2073203;28;20030;-74
2023/02/18 04:43:13;;;;;;;14.48;12.95;;;12.40;99.90;;;;;;2074574;28;20759;-74
2023/02/18 04:44:14;;;;;;;16.17;13.50;;;12.40;99.90;;;;;;2084065;28;20091;-74
2023/02/18 04:45:14;;;;;;;15.07;13.55;;;12.40;99.90;;;;;;2082176;28;20042;-75
2023/02/18 04:46:15;;;;;;;14.93;13.32;;;12.40;99.90;;;;;;2074543;28;20398;-75
2023/02/18 04:47:16;;;;;;;15.23;13.63;;;12.40;99.90;;;;;;2074296;28;20100;-75
2023/02/18 04:48:16;;;;;;;13.32;11.93;;;12.40;99.90;;;;;;2074447;28;20040;-75
2023/02/18 04:49:17;;;;;;;14.45;13.00;;;12.40;99.90;;;;;;2073648;28;20056;-75
2023/02/18 04:50:18;;;;;;;14.27;12.43;;;12.40;99.90;;;;;;2073390;28;20097;-75
2023/02/18 04:51:18;;;;;;;14.43;12.93;;;12.40;99.90;;;;;;2076458;28;20025;-75
2023/02/18 04:52:19;;;;;;;14.50;12.23;;;12.30;99.90;;;;;;2072740;28;20057;-74
2023/02/18 04:53:20;;;;;;;13.93;12.43;;;12.40;99.90;;;;;;2075084;28;20028;-75
2023/02/18 04:54:20;;;;;;;14.38;12.88;;;12.40;99.90;;;;;;2074880;28;20033;-75
2023/02/18 04:55:21;;;;;;;13.85;12.43;;;12.40;99.90;;;;;;2072490;28;20381;-74
2023/02/18 04:56:22;;;;;;;13.18;11.45;;;12.40;99.90;;;;;;2081645;28;20032;-74
2023/02/18 04:57:22;;;;;;;13.43;11.13;;;12.40;99.90;;;;;;2081583;28;20029;-74
2023/02/18 04:58:23;;;;;;;12.10;10.77;;;12.40;99.90;;;;;;2075431;28;20013;-74
2023/02/18 04:59:23;;;;;;;13.73;11.10;;;12.30;99.90;;;;;;2074497;28;20101;-75
2023/02/18 05:00:24;;;;;;;11.65;10.45;;;12.40;99.90;;;;;;2074842;28;20024;-75
2023/02/18 05:01:25;;;;;;;11.85;9.73;;;12.40;99.90;;;;;;2073761;28;20025;-75
2023/02/18 05:02:25;;;;;;;10.95;9.85;;;12.40;99.90;;;;;;2074613;28;20025;-75
2023/02/18 05:03:26;;;;;;;11.23;9.95;;;12.40;99.90;;;;;;2073395;28;20033;-75
2023/02/18 05:04:27;;;;;;;10.38;8.95;;;12.40;99.90;;;;;;2075010;28;20030;-74
2023/02/18 05:05:28;;;;;;;9.45;8.43;;;12.40;99.90;;;;;;2076359;28;20021;-74
2023/02/18 05:06:28;;;;;;;9.63;8.70;;;12.40;99.90;;;;;;2074508;28;20041;-75
2023/02/18 05:07:29;;;;;;;9.90;8.90;;;12.40;99.90;;;;;;2073231;28;20022;-75
2023/02/18 05:08:29;;;;;;;10.35;9.23;;;12.40;99.90;;;;;;2077969;28;20074;-75
2023/02/18 05:09:30;;;;;;;7.55;6.72;;;12.30;99.90;;;;;;2076078;28;20091;-75
2023/02/18 05:10:30;;;;;;;7.95;7.07;;;12.30;99.90;;;;;;2074858;28;20024;-75
2023/02/18 05:11:31;;;;;;;8.13;6.95;;;12.30;99.90;;;;;;2076622;28;20029;-75
2023/02/18 05:12:31;;;;;;;7.75;6.70;;;12.30;99.90;;;;;;2076170;28;21630;-75
2023/02/18 05:13:32;;;;;;;8.07;7.28;;;12.30;99.90;;;;;;2074966;28;20105;-75
2023/02/18 05:14:33;;;;;;;7.68;6.88;;;12.30;99.90;;;;;;2077202;28;20079;-75
2023/02/18 05:15:33;;;;;;;7.53;6.70;;;12.30;99.90;;;;;;2074716;28;20024;-75
2023/02/18 05:16:34;;;;;;;6.93;6.32;;;12.30;99.90;;;;;;2076513;28;20495;-75
2023/02/18 05:17:34;;;;;;;7.25;6.55;;;12.30;99.90;;;;;;2075139;28;20028;-75
2023/02/18 05:18:35;;;;;;;6.70;5.38;;;12.30;99.90;;;;;;2076443;28;20117;-75
2023/02/18 05:19:35;;;;;;;6.03;5.45;;;12.30;99.90;;;;;;2074721;28;20030;-75
2023/02/18 05:20:36;;;;;;;6.13;5.63;;;12.30;99.90;;;;;;2075698;28;20028;-75
2023/02/18 05:21:36;;;;;;;5.45;5.00;;;12.30;99.90;;;;;;2077291;28;20030;-75
2023/02/18 05:22:37;;;;;;;5.30;4.80;;;12.30;99.90;;;;;;2076584;28;20818;-75
2023/02/18 05:23:38;;;;;;;5.35;4.45;;;12.30;99.90;;;;;;2076229;28;20362;-75
2023/02/18 05:24:38;;;;;;;5.25;4.75;;;12.30;99.90;;;;;;2075863;28;20501;-75
2023/02/18 05:25:39;;;;;;;4.20;3.80;;;12.30;99.90;;;;;;2075156;28;20056;-75
2023/02/18 05:26:40;;;;;;;3.97;3.65;;;12.30;99.90;;;;;;2076764;28;20033;-75
2023/02/18 05:27:40;;;;;;;3.78;3.47;;;12.30;99.90;;;;;;2076544;28;20604;-75